Date,TemperatureHighF,TemperatureAvgF,TemperatureLowF,DewpointHighF,DewpointAvgF,DewpointLowF,HumidityHigh,HumidityAvg,HumidityLow,PressureMaxIn,PressureMinIn,WindSpeedMaxMPH,WindSpeedAvgMPH,GustSpeedMaxMPH,PrecipitationSumIn
2012-11-11,66.4,58.3,54.3,46.4,43.7,42.4,64,59,44,30.38,29.86,2,0,2,0.00
2012-11-12,77.7,62.5,2.6,55.2,47.5,-10.1,66,57,42,30.37,30.11,105,5,105,0.00
2012-11-13,63.7,47.0,0.5,99.9,36.4,-7.8,68,65,58,31.50,29.34,21,6,21,0.15
2012-11-14,53.2,41.3,30.0,25.9,22.8,16.0,63,49,28,29.54,29.42,22,5,22,0.01
2012-11-15,46.6,40.6,34.2,33.0,27.9,21.9,66,60,48,29.44,29.29,15,5,15,0.15
2012-11-16,57.7,44.6,33.1,32.4,27.7,20.5,67,54,25,29.44,29.31,15,4,15,0.00
2012-11-17,59.2,43.2,28.8,27.8,18.7,-1.2,68,43,9,29.54,29.44,21,7,21,0.00
2012-11-18,54.7,46.7,42.6,35.7,33.0,27.6,64,59,48,29.53,29.41,19,10,19,0.00
2012-11-19,59.4,50.4,43.9,38.4,35.0,32.9,66,56,42,29.42,29.23,21,9,21,0.00
2012-11-20,74.7,51.4,0.0,44.1,33.2,30.9,67,47,30,29.24,29.10,11,3,11,0.22
2012-11-21,42.1,25.9,0.0,29.2,25.9,21.0,64,44,60,29.24,29.16,5,2,5,0.03
2012-11-22,62.1,44.7,29.5,19.1,11.3,-10.0,61,34,5,29.51,29.47,15,3,15,0.78
2012-11-23,67.5,46.6,26.1,30.5,21.7,14.8,70,43,15,29.49,29.19,17,4,17,0.00
2012-11-24,51.8,41.9,27.5,22.4,11.0,0.4,45,29,13,29.44,29.20,22,8,22,0.00
2012-11-25,52.2,34.7,18.1,18.1,8.5,-5.2,66,39,9,29.48,29.32,17,4,17,0.00
2012-11-26,68.0,46.6,25.7,30.8,2.1,-37.2,66,33,1,29.51,29.39,11,2,11,0.00
2012-11-27,52.5,43.4,34.2,34.8,32.3,20.2,70,65,46,29.56,29.43,12,5,12,0.09
2012-11-28,54.3,41.4,30.7,33.1,23.7,14.2,71,53,21,29.67,29.55,13,3,13,0.00
2012-11-29,56.7,33.0,21.2,30.4,16.7,9.7,71,55,16,29.78,29.67,11,1,11,0.00
2012-11-30,63.1,41.6,26.2,31.1,21.5,17.4,70,50,17,29.71,29.60,12,2,12,0.00
2012-12-1,66.7,44.5,29.3,39.0,26.0,3.5,71,53,10,29.69,29.32,10,2,10,0.00
2012-12-2,68.4,48.9,33.3,44.2,34.3,24.4,72,59,33,29.52,29.36,20,4,20,0.00
2012-12-3,78.3,62.0,50.0,54.9,43.5,39.1,70,54,25,29.43,29.34,10,3,10,0.00
2012-12-4,73.2,56.4,41.7,52.9,41.6,33.4,80,59,32,29.44,29.29,53,4,53,0.00
2012-12-5,61.0,55.2,38.5,50.4,44.9,30.3,72,68,62,29.35,29.24,9,2,9,0.07
2012-12-6,53.2,42.5,24.8,32.9,25.8,18.5,73,51,29,29.49,29.34,10,4,10,1.51
2012-12-7,52.2,46.5,42.6,40.5,35.0,28.3,72,64,51,29.35,29.14,5,2,5,0.27
2012-12-8,65.7,54.1,12.4,47.1,41.8,6.9,78,64,48,29.18,29.09,10,3,10,0.01
2012-12-9,72.7,58.1,15.4,56.1,45.3,6.5,74,63,47,29.26,29.12,8,2,8,0.01
2012-12-10,68.7,61.1,0.0,50.2,41.5,37.5,68,40,35,29.12,28.82,18,7,18,0.01
2012-12-11,63.7,49.6,0.0,50.4,27.3,23.9,62,41,29,29.56,28.90,14,6,14,0.00
2012-12-12,46.2,43.5,38.5,28.6,24.0,20.8,62,46,38,29.74,29.55,17,7,17,0.08
2012-12-13,52.9,40.8,27.9,26.9,23.1,18.4,67,50,30,29.79,29.67,18,5,18,0.05
2012-12-14,61.2,37.4,22.5,30.8,17.9,5.2,72,52,11,29.77,29.62,10,2,10,0.00
2012-12-15,58.5,36.2,28.0,32.6,22.5,13.5,71,61,18,29.67,29.54,11,2,11,0.00
2012-12-16,57.7,54.9,50.0,46.5,44.6,41.0,72,68,66,29.43,29.29,12,6,12,0.15
2012-12-17,60.4,57.0,41.5,48.0,44.5,28.7,68,63,53,29.30,29.03,18,6,18,0.22
2012-12-18,70.2,53.2,34.3,48.1,34.8,20.9,78,52,23,29.29,29.02,32,5,32,0.00
2012-12-19,67.8,43.6,28.8,33.1,23.5,14.9,72,51,14,29.54,29.27,17,3,17,0.00
2012-12-20,66.0,47.1,0.0,57.1,35.3,24.4,73,61,46,29.57,28.84,21,6,21,0.08
2012-12-21,66.0,47.1,36.1,57.1,28.4,8.1,73,49,24,29.19,28.85,28,14,28,0.08
2012-12-22,52.0,40.0,32.5,14.2,8.6,-9.2,45,29,8,29.49,29.18,23,7,24,0.00
2012-12-23,58.6,40.6,23.2,23.2,5.6,-43.4,64,30,1,29.52,29.38,15,4,15,0.00
2012-12-24,49.6,45.7,39.9,39.2,29.1,16.6,69,52,34,29.43,29.27,17,4,17,0.00
2012-12-25,61.2,49.5,44.2,40.7,36.0,30.1,72,61,34,29.52,29.31,11,4,11,0.00
2012-12-26,46.6,36.3,0.0,35.6,32.4,28.9,75,63,53,29.50,28.84,15,5,15,1.19
2012-12-27,50.2,40.2,32.5,29.0,22.0,17.1,73,49,29,29.47,28.99,21,7,21,0.00
2012-12-28,43.9,34.1,25.5,23.1,18.4,15.1,68,53,37,29.59,29.40,10,3,11,0.00
2012-12-29,52.7,39.9,33.3,35.3,24.7,18.5,74,43,37,29.38,29.04,23,5,23,0.19
2012-12-30,47.5,37.3,28.4,18.7,10.6,1.2,50,34,16,30.38,29.31,24,5,24,0.00
2012-12-31,64.2,39.1,22.5,19.9,12.6,-2.0,66,38,10,30.36,29.52,17,4,17,0.00
2013-1-1,46.9,44.9,41.4,38.4,31.0,15.2,74,60,28,30.10,29.35,14,3,14,0.15